createdAt,value
2022-10-06T00:02:05.614Z,100403.00
2022-10-06T00:07:09.364Z,100406.00
2022-10-06T00:12:12.954Z,100406.80
2022-10-06T00:17:16.365Z,100407.00
2022-10-06T00:22:19.890Z,100410.00
2022-10-06T00:27:23.295Z,100413.20
2022-10-06T00:32:26.612Z,100413.20
2022-10-06T00:37:35.038Z,100412.00
2022-10-06T00:43:05.588Z,100410.00
2022-10-06T00:48:31.135Z,100410.60
2022-10-06T00:53:35.902Z,100416.40
2022-10-06T00:58:39.483Z,100405.00
2022-10-06T01:03:55.796Z,100408.60
2022-10-06T01:08:59.315Z,100402.60
2022-10-06T01:14:02.664Z,100404.80
2022-10-06T01:19:17.409Z,100400.20
2022-10-06T01:24:21.343Z,100402.20
2022-10-06T01:29:26.186Z,100401.80
2022-10-06T01:34:29.638Z,100395.20
2022-10-06T01:39:33.114Z,100398.60
2022-10-06T01:44:36.449Z,100403.20
2022-10-06T01:49:40.654Z,100402.40
2022-10-06T01:54:44.070Z,100404.20
2022-10-06T01:59:51.553Z,100400.00
2022-10-06T02:04:57.965Z,100406.40
2022-10-06T02:10:01.791Z,100404.20
2022-10-06T02:15:06.485Z,100402.20
2022-10-06T02:20:11.486Z,100403.60
2022-10-06T02:25:14.878Z,100409.00
2022-10-06T02:30:18.257Z,100413.60
2022-10-06T02:35:21.729Z,100417.00
2022-10-06T02:40:25.035Z,100418.00
2022-10-06T02:45:28.754Z,100425.00
2022-10-06T02:50:35.035Z,100418.00
2022-10-06T02:55:38.656Z,100414.60
2022-10-06T03:00:41.971Z,100422.20
2022-10-06T03:05:45.381Z,100426.60
2022-10-06T03:10:48.692Z,100435.80
2022-10-06T03:15:52.064Z,100432.40
2022-10-06T03:21:01.558Z,100420.80
2022-10-06T03:26:04.872Z,100424.20
2022-10-06T03:31:09.099Z,100426.00
2022-10-06T03:36:17.677Z,100435.40
2022-10-06T03:41:27.911Z,100442.60
2022-10-06T03:46:35.102Z,100436.20
2022-10-06T03:51:42.013Z,100449.40
2022-10-06T03:56:45.628Z,100447.60
2022-10-06T04:01:49.588Z,100447.60
2022-10-06T04:06:53.075Z,100454.00
2022-10-06T04:11:56.901Z,100468.60
2022-10-06T04:17:01.798Z,100470.00
2022-10-06T04:22:05.260Z,100462.60
2022-10-06T04:27:27.104Z,100474.40
2022-10-06T04:32:30.520Z,100477.60
2022-10-06T04:37:33.833Z,100483.20
2022-10-06T04:42:37.761Z,100484.80
2022-10-06T04:47:41.586Z,100489.20
2022-10-06T04:52:45.405Z,100493.80
2022-10-06T04:57:49.538Z,100499.20
2022-10-06T05:02:56.402Z,100495.60
2022-10-06T05:07:59.756Z,100503.40
2022-10-06T05:13:04.089Z,100506.40
2022-10-06T05:18:07.965Z,100521.60
2022-10-06T05:23:11.349Z,100522.00
2022-10-06T05:28:14.910Z,100535.60
2022-10-06T05:33:18.351Z,100538.80
2022-10-06T05:38:22.993Z,100537.20
2022-10-06T05:43:26.319Z,100550.40
2022-10-06T05:48:31.352Z,100568.00
2022-10-06T05:53:37.288Z,100570.00
2022-10-06T05:58:43.744Z,100572.60
2022-10-06T06:04:00.846Z,100576.80
2022-10-06T06:09:11.894Z,100580.80
2022-10-06T06:14:18.790Z,100565.20
2022-10-06T06:19:27.064Z,100605.80
2022-10-06T06:24:32.529Z,100610.20
2022-10-06T06:29:35.796Z,100617.00
2022-10-06T06:34:39.240Z,100612.40
2022-10-06T06:39:42.543Z,100624.00
2022-10-06T06:44:46.178Z,100626.40
2022-10-06T06:49:49.546Z,100622.80
2022-10-06T06:54:52.911Z,100627.40
2022-10-06T06:59:57.362Z,100632.60
2022-10-06T07:05:00.719Z,100653.20
2022-10-06T07:10:05.133Z,100671.60
2022-10-06T07:15:28.268Z,100688.60
2022-10-06T07:20:50.383Z,100694.00
2022-10-06T07:25:53.837Z,100707.60
2022-10-06T07:31:00.835Z,100707.20
2022-10-06T07:36:04.661Z,100719.80
2022-10-06T07:41:18.831Z,100729.60
2022-10-06T07:46:22.857Z,100736.40
2022-10-06T07:51:27.540Z,100722.40
2022-10-06T07:56:32.034Z,100756.40
2022-10-06T08:01:35.606Z,100756.60
2022-10-06T08:06:40.088Z,100775.80
2022-10-06T08:11:45.251Z,100779.80
2022-10-06T08:16:48.871Z,100776.40
2022-10-06T08:21:52.387Z,100789.20
2022-10-06T08:26:55.692Z,100802.00
2022-10-06T08:31:59.729Z,100799.80
2022-10-06T08:37:19.441Z,100820.20
2022-10-06T08:42:49.079Z,100835.80
2022-10-06T08:48:14.987Z,100845.00
2022-10-06T08:54:00.484Z,100857.80
2022-10-06T08:59:05.450Z,100842.40
2022-10-06T09:04:23.492Z,100875.40
2022-10-06T09:10:08.582Z,100878.00
2022-10-06T09:15:29.235Z,100889.40
2022-10-06T09:20:44.436Z,100886.80
2022-10-06T09:25:47.970Z,100892.80
2022-10-06T09:30:55.287Z,100900.80
2022-10-06T09:36:11.282Z,100897.40
2022-10-06T09:41:16.656Z,100902.60
2022-10-06T09:46:29.444Z,100913.20
2022-10-06T09:51:36.717Z,100921.20
2022-10-06T09:56:45.337Z,100933.20
2022-10-06T10:01:55.584Z,100956.60
2022-10-06T10:07:30.524Z,100972.20
2022-10-06T10:12:34.409Z,100983.20
2022-10-06T10:17:54.724Z,101001.20
2022-10-06T10:23:03.665Z,101006.20
2022-10-06T10:29:15.331Z,101023.40
2022-10-06T10:35:07.019Z,101022.40
2022-10-06T10:40:51.804Z,101022.00
2022-10-06T10:46:32.064Z,101025.20
2022-10-06T10:51:53.931Z,101023.20
2022-10-06T10:56:59.266Z,101029.00
2022-10-06T11:02:17.193Z,101040.60
2022-10-06T11:07:44.163Z,101047.40
2022-10-06T11:13:24.601Z,101058.20
2022-10-06T11:18:42.205Z,101058.60
2022-10-06T11:24:37.978Z,101063.00
2022-10-06T11:30:12.452Z,101073.00
2022-10-06T11:35:27.139Z,101069.20
2022-10-06T11:41:10.467Z,101073.40
2022-10-06T11:46:13.949Z,101077.20
2022-10-06T11:51:21.784Z,101104.60
2022-10-06T11:56:38.210Z,101101.20
2022-10-06T12:01:51.216Z,101115.00
2022-10-06T12:06:57.988Z,101124.40
2022-10-06T12:12:19.579Z,101127.80
2022-10-06T12:17:40.925Z,101137.40
2022-10-06T12:23:03.164Z,101146.60
2022-10-06T12:28:36.761Z,101157.00
2022-10-06T12:33:43.164Z,101162.40
2022-10-06T12:39:25.087Z,101162.40
2022-10-06T12:44:43.346Z,101166.60
2022-10-06T12:49:54.195Z,101161.00
2022-10-06T12:55:23.859Z,101169.60
2022-10-06T13:00:42.738Z,101170.00
2022-10-06T13:05:57.730Z,101183.20
2022-10-06T13:11:22.644Z,101190.20
2022-10-06T13:16:31.866Z,101185.00
2022-10-06T13:21:35.951Z,101196.40
2022-10-06T13:26:41.113Z,101197.40
2022-10-06T13:31:52.939Z,101200.20
2022-10-06T13:36:59.394Z,101211.40
2022-10-06T13:42:10.621Z,101227.00
2022-10-06T13:47:30.142Z,101235.60
2022-10-06T13:52:44.687Z,101247.00
2022-10-06T13:57:49.650Z,101250.40
2022-10-06T14:03:05.579Z,101259.00
2022-10-06T14:08:11.882Z,101259.80
2022-10-06T14:13:57.376Z,101262.20
2022-10-06T14:19:05.342Z,101271.40
2022-10-06T14:24:19.203Z,101273.00
2022-10-06T14:29:23.543Z,101275.20
2022-10-06T14:34:29.177Z,101285.60
2022-10-06T14:39:32.874Z,101294.60
2022-10-06T14:44:38.338Z,101297.00
2022-10-06T14:49:41.747Z,101309.80
2022-10-06T14:54:45.264Z,101309.20
2022-10-06T14:59:48.885Z,101322.40
2022-10-06T15:04:52.191Z,101320.20
2022-10-06T15:09:57.436Z,101328.00
2022-10-06T15:15:00.870Z,101332.20
2022-10-06T15:20:05.368Z,101342.80
2022-10-06T15:25:30.119Z,101348.40
2022-10-06T15:30:33.533Z,101359.60
2022-10-06T15:35:37.058Z,101367.40
2022-10-06T15:40:40.573Z,101367.60
2022-10-06T15:45:55.604Z,101377.40
2022-10-06T15:50:59.324Z,101377.00
2022-10-06T15:56:03.096Z,101384.00
2022-10-06T16:01:11.488Z,101389.60
2022-10-06T16:06:17.405Z,101400.60
2022-10-06T16:11:21.226Z,101402.00
2022-10-06T16:16:24.758Z,101415.80
2022-10-06T16:21:33.634Z,101421.00
2022-10-06T16:26:37.532Z,101422.20
2022-10-06T16:31:41.408Z,101426.20
2022-10-06T16:36:45.768Z,101433.60
2022-10-06T16:41:50.967Z,101436.00
2022-10-06T16:46:54.486Z,101445.00
2022-10-06T16:51:58.251Z,101459.40
2022-10-06T16:57:06.905Z,101464.20
2022-10-06T17:02:10.321Z,101473.60
2022-10-06T17:07:13.630Z,101477.80
2022-10-06T17:12:17.046Z,101487.80
2022-10-06T17:17:20.654Z,101499.40
2022-10-06T17:22:24.070Z,101504.40
2022-10-06T17:27:33.872Z,101499.00
2022-10-06T17:32:39.785Z,101502.20
2022-10-06T17:37:43.529Z,101495.80
2022-10-06T17:42:47.042Z,101498.40
2022-10-06T17:47:51.995Z,101503.80
2022-10-06T17:52:55.460Z,101504.20
2022-10-06T17:57:59.229Z,101512.00
2022-10-06T18:03:02.650Z,101522.80
2022-10-06T18:08:08.923Z,101524.20
2022-10-06T18:13:12.238Z,101522.40
2022-10-06T18:18:16.033Z,101521.80
2022-10-06T18:23:19.577Z,101530.80
2022-10-06T18:28:22.992Z,101533.20
2022-10-06T18:38:52.860Z,101540.80
2022-10-06T18:43:56.275Z,101540.00
2022-10-06T18:49:10.751Z,101544.20
2022-10-06T18:54:24.099Z,101547.40
2022-10-06T18:59:31.804Z,101548.40
2022-10-06T19:04:36.248Z,101558.60
2022-10-06T19:09:45.344Z,101557.60
2022-10-06T19:14:50.420Z,101558.60
2022-10-06T19:19:55.502Z,101564.20
2022-10-06T19:24:58.910Z,101566.40
2022-10-06T19:30:02.428Z,101568.60
2022-10-06T19:35:10.082Z,101577.20
2022-10-06T19:40:13.963Z,101586.20
2022-10-06T19:45:20.895Z,101589.40
2022-10-06T19:50:24.693Z,101592.60
2022-10-06T19:55:28.878Z,101589.40
2022-10-06T20:00:32.210Z,101588.80
2022-10-06T20:05:38.586Z,101597.00
2022-10-06T20:10:41.922Z,101597.60
2022-10-06T20:15:45.238Z,101598.40
2022-10-06T20:20:59.059Z,101604.80
2022-10-06T20:26:22.719Z,101615.00
2022-10-06T20:31:34.288Z,101616.20
2022-10-06T20:36:39.190Z,101610.80
2022-10-06T20:41:44.581Z,101613.40
2022-10-06T20:46:48.007Z,101614.60
2022-10-06T20:51:52.558Z,101613.60
2022-10-06T20:56:57.088Z,101614.20
2022-10-06T21:02:01.272Z,101611.00
2022-10-06T21:07:06.211Z,101613.20
2022-10-06T21:12:09.794Z,101629.40
2022-10-06T21:17:13.411Z,101627.20
2022-10-06T21:22:16.890Z,101633.00
2022-10-06T21:27:21.368Z,101630.20
2022-10-06T21:32:25.088Z,101627.60
2022-10-06T21:37:28.506Z,101627.20
2022-10-06T21:42:32.023Z,101632.80
2022-10-06T21:47:35.429Z,101622.60
2022-10-06T21:52:39.130Z,101628.40
2022-10-06T21:57:42.808Z,101623.20
2022-10-06T22:02:46.550Z,101627.80
2022-10-06T22:07:50.008Z,101631.40
2022-10-06T22:12:53.419Z,101631.20
2022-10-06T22:17:56.797Z,101634.40
2022-10-06T22:23:04.038Z,101621.60
2022-10-06T22:28:08.391Z,101617.60
2022-10-06T22:33:11.911Z,101603.20
2022-10-06T22:38:15.314Z,101608.20
2022-10-06T22:43:18.818Z,101604.60
2022-10-06T22:48:22.704Z,101605.20
2022-10-06T22:53:30.561Z,101612.80
2022-10-06T22:58:34.079Z,101604.00
2022-10-06T23:03:38.250Z,101614.80
2022-10-06T23:08:42.235Z,101617.60
2022-10-06T23:13:46.937Z,101620.80
2022-10-06T23:18:50.671Z,101621.00
2022-10-06T23:23:59.426Z,101623.80
2022-10-06T23:29:04.291Z,101622.00
2022-10-06T23:34:07.912Z,101628.40
2022-10-06T23:39:11.479Z,101626.40
2022-10-06T23:44:14.866Z,101629.20
2022-10-06T23:49:18.252Z,101636.40
2022-10-06T23:54:21.771Z,101628.00
2022-10-06T23:59:26.517Z,101622.00
